createdAt,value
2022-12-01T00:01:16.684Z,5.64
2022-12-01T00:07:18.638Z,5.75
2022-12-01T00:13:20.794Z,5.68
2022-12-01T00:19:27.724Z,5.57
2022-12-01T00:25:31.312Z,5.58
2022-12-01T00:31:33.363Z,5.44
2022-12-01T00:37:35.831Z,5.57
2022-12-01T00:43:37.923Z,5.47
2022-12-01T00:49:40.310Z,5.50
2022-12-01T00:55:42.244Z,5.69
2022-12-01T01:01:44.237Z,5.59
2022-12-01T01:07:46.971Z,5.73
2022-12-01T01:13:48.897Z,5.58
2022-12-01T01:19:54.668Z,5.46
2022-12-01T01:26:13.947Z,5.46
2022-12-01T01:32:15.847Z,5.26
2022-12-01T01:38:17.798Z,5.37
2022-12-01T01:44:48.305Z,5.19
2022-12-01T01:50:50.219Z,5.24
2022-12-01T01:56:53.244Z,5.18
2022-12-01T02:02:58.033Z,5.11
2022-12-01T02:09:00.019Z,5.06
2022-12-01T02:15:36.816Z,5.07
2022-12-01T02:22:20.258Z,5.12
2022-12-01T02:28:34.085Z,5.10
2022-12-01T02:34:55.160Z,5.30
2022-12-01T02:41:29.501Z,5.27
2022-12-01T02:47:36.819Z,5.41
2022-12-01T02:53:38.771Z,5.30
2022-12-01T02:59:52.709Z,5.38
2022-12-01T03:06:20.709Z,5.31
2022-12-01T03:13:07.578Z,5.34
2022-12-01T03:19:19.932Z,5.21
2022-12-01T03:25:24.901Z,5.20
2022-12-01T03:31:33.221Z,5.18
2022-12-01T03:37:49.568Z,5.22
2022-12-01T03:44:14.050Z,5.14
2022-12-01T03:50:19.483Z,5.11
2022-12-01T03:56:28.895Z,5.04
2022-12-01T04:02:35.207Z,5.20
2022-12-01T04:08:37.733Z,5.03
2022-12-01T04:14:42.228Z,4.95
2022-12-01T04:20:46.928Z,4.99
2022-12-01T04:26:48.925Z,5.01
2022-12-01T04:32:54.184Z,4.91
2022-12-01T04:38:59.551Z,4.81
2022-12-01T04:45:01.575Z,4.84
2022-12-01T04:51:08.694Z,4.81
2022-12-01T04:57:10.663Z,5.01
2022-12-01T05:03:15.176Z,4.84
2022-12-01T05:09:18.008Z,4.59
2022-12-01T05:15:19.994Z,4.60
2022-12-01T05:21:21.880Z,4.60
2022-12-01T05:27:23.764Z,4.66
2022-12-01T05:33:27.650Z,4.43
2022-12-01T05:39:29.946Z,4.38
2022-12-01T05:45:32.369Z,4.47
2022-12-01T05:51:34.388Z,4.51
2022-12-01T05:57:38.870Z,4.32
2022-12-01T06:03:40.757Z,4.35
2022-12-01T06:09:42.640Z,4.43
2022-12-01T06:16:00.863Z,4.31
2022-12-01T06:22:03.315Z,4.21
2022-12-01T06:28:13.262Z,4.22
2022-12-01T06:34:15.194Z,4.24
2022-12-01T06:40:33.127Z,4.40
2022-12-01T06:46:35.158Z,4.35
2022-12-01T06:52:37.481Z,4.21
2022-12-01T06:58:39.380Z,4.27
2022-12-01T07:04:41.456Z,4.24
2022-12-01T07:10:46.385Z,4.35
2022-12-01T07:16:48.348Z,4.01
2022-12-01T07:22:53.986Z,3.88
2022-12-01T07:28:58.876Z,4.00
2022-12-01T07:35:00.830Z,4.10
2022-12-01T07:41:17.927Z,4.03
2022-12-01T07:47:22.886Z,4.24
2022-12-01T07:53:24.926Z,4.17
2022-12-01T07:59:26.855Z,4.04
2022-12-01T08:05:28.822Z,4.10
2022-12-01T08:11:33.287Z,4.18
2022-12-01T08:17:38.206Z,4.02
2022-12-01T08:23:58.590Z,4.12
2022-12-01T08:30:00.913Z,4.00
2022-12-01T08:36:11.406Z,4.03
2022-12-01T08:42:16.202Z,4.33
2022-12-01T08:48:24.323Z,4.11
2022-12-01T08:54:26.271Z,4.11
2022-12-01T09:00:37.984Z,4.17
2022-12-01T09:06:43.281Z,4.13
2022-12-01T09:12:45.234Z,4.17
2022-12-01T09:18:47.985Z,4.31
2022-12-01T09:24:50.026Z,4.48
2022-12-01T09:30:52.065Z,4.46
2022-12-01T09:36:58.565Z,4.45
2022-12-01T09:43:21.819Z,4.34
2022-12-01T09:50:00.398Z,4.40
2022-12-01T09:56:07.316Z,4.48
2022-12-01T10:02:43.644Z,4.71
2022-12-01T10:09:26.906Z,4.99
2022-12-01T10:15:50.068Z,4.98
2022-12-01T10:22:07.669Z,5.00
2022-12-01T10:28:37.107Z,5.29
2022-12-01T10:34:42.478Z,5.24
2022-12-01T10:40:44.887Z,5.52
2022-12-01T10:46:56.061Z,5.50
2022-12-01T10:52:57.961Z,5.44
2022-12-01T10:59:18.670Z,5.53
2022-12-01T11:05:36.868Z,5.46
2022-12-01T11:11:40.569Z,5.28
2022-12-01T11:17:43.910Z,5.37
2022-12-01T11:23:55.623Z,5.39
2022-12-01T11:30:22.136Z,5.67
2022-12-01T11:36:47.842Z,5.44
2022-12-01T11:43:06.624Z,5.64
2022-12-01T11:49:22.632Z,5.51
2022-12-01T11:55:29.711Z,5.52
2022-12-01T12:01:49.068Z,5.62
2022-12-01T12:08:21.996Z,5.60
2022-12-01T12:14:43.452Z,5.71
2022-12-01T12:21:07.857Z,5.56
2022-12-01T12:28:03.433Z,5.56
2022-12-01T12:34:26.421Z,5.62
2022-12-01T12:40:55.758Z,5.69
2022-12-01T12:47:00.496Z,5.85
2022-12-01T12:53:13.951Z,5.47
2022-12-01T12:59:53.569Z,5.41
2022-12-01T13:06:26.030Z,5.58
2022-12-01T13:12:35.086Z,5.58
2022-12-01T13:18:51.502Z,5.48
2022-12-01T13:24:53.451Z,5.54
2022-12-01T13:31:31.197Z,5.32
2022-12-01T13:37:41.723Z,5.46
2022-12-01T13:44:22.410Z,5.25
2022-12-01T13:50:47.276Z,5.27
2022-12-01T13:57:07.099Z,5.26
2022-12-01T14:03:20.713Z,5.11
2022-12-01T14:09:36.840Z,5.03
2022-12-01T14:15:43.753Z,5.01
2022-12-01T14:21:50.138Z,5.00
2022-12-01T14:27:59.161Z,4.91
2022-12-01T14:34:19.361Z,4.70
2022-12-01T14:40:28.115Z,4.63
2022-12-01T14:46:45.000Z,4.62
2022-12-01T14:52:58.325Z,4.64
2022-12-01T14:59:14.265Z,4.55
2022-12-01T15:11:52.131Z,4.21
2022-12-01T15:17:57.599Z,4.11
2022-12-01T15:24:08.531Z,3.92
2022-12-01T15:30:19.883Z,3.97
2022-12-01T15:36:34.676Z,3.98
2022-12-01T15:42:39.259Z,3.83
2022-12-01T15:48:41.623Z,3.85
2022-12-01T15:54:52.293Z,3.72
2022-12-01T16:01:30.235Z,3.81
2022-12-01T16:08:11.418Z,3.63
2022-12-01T16:14:26.638Z,3.63
2022-12-01T16:20:44.196Z,3.51
2022-12-01T16:27:06.549Z,3.50
2022-12-01T16:33:22.562Z,3.54
2022-12-01T16:39:24.443Z,3.36
2022-12-01T16:45:26.791Z,3.49
2022-12-01T16:51:35.510Z,3.36
2022-12-01T16:57:44.350Z,3.43
2022-12-01T17:03:46.257Z,3.24
2022-12-01T17:09:51.169Z,3.20
2022-12-01T17:22:11.237Z,3.30
2022-12-01T17:28:19.439Z,3.21
2022-12-01T17:34:21.414Z,3.22
2022-12-01T17:40:23.718Z,3.25
2022-12-01T17:46:25.760Z,3.15
2022-12-01T17:52:29.287Z,3.08
2022-12-01T17:58:31.259Z,3.27
2022-12-01T18:04:34.719Z,3.23
2022-12-01T18:10:37.307Z,3.29
2022-12-01T18:16:39.382Z,3.35
2022-12-01T18:22:41.389Z,3.35
2022-12-01T18:28:44.182Z,3.34
2022-12-01T18:34:46.058Z,3.24
2022-12-01T18:40:47.973Z,3.32
2022-12-01T18:46:50.571Z,3.40
2022-12-01T18:52:52.504Z,3.44
2022-12-01T18:59:07.060Z,3.35
2022-12-01T19:05:09.597Z,3.27
2022-12-01T19:11:15.162Z,3.34
2022-12-01T19:17:20.510Z,3.46
2022-12-01T19:23:25.137Z,3.34
2022-12-01T19:29:27.037Z,3.48
2022-12-01T19:35:29.487Z,3.48
2022-12-01T19:41:35.413Z,3.47
2022-12-01T19:47:43.500Z,3.58
2022-12-01T19:53:45.636Z,3.53
2022-12-01T19:59:47.545Z,3.59
2022-12-01T20:05:50.391Z,3.64
2022-12-01T20:11:53.991Z,3.62
2022-12-01T20:17:55.900Z,3.62
2022-12-01T20:24:04.444Z,3.63
2022-12-01T20:30:07.410Z,3.66
2022-12-01T20:36:18.944Z,3.71
2022-12-01T20:42:22.316Z,3.67
2022-12-01T20:48:33.952Z,3.67
2022-12-01T20:54:39.349Z,3.62
2022-12-01T21:00:44.317Z,3.59
2022-12-01T21:06:57.028Z,3.60
2022-12-01T21:13:25.052Z,3.62
2022-12-01T21:19:45.398Z,3.62
2022-12-01T21:25:49.002Z,3.62
2022-12-01T21:32:00.174Z,3.60
2022-12-01T21:38:11.182Z,3.65
2022-12-01T21:44:20.179Z,3.69
2022-12-01T21:50:27.232Z,3.65
2022-12-01T21:56:41.678Z,3.58
2022-12-01T22:02:52.898Z,3.61
2022-12-01T22:09:26.388Z,3.63
2022-12-01T22:22:09.112Z,3.56
2022-12-01T22:28:25.609Z,3.54
2022-12-01T22:34:29.281Z,3.41
2022-12-01T22:40:50.516Z,3.39
2022-12-01T22:46:52.554Z,3.59
2022-12-01T22:53:01.476Z,3.44
2022-12-01T22:59:16.562Z,3.31
2022-12-01T23:05:28.937Z,3.33
2022-12-01T23:11:30.897Z,3.36
2022-12-01T23:17:35.672Z,3.25
2022-12-01T23:23:40.500Z,3.27
2022-12-01T23:29:42.689Z,3.34
2022-12-01T23:35:48.926Z,3.25
2022-12-01T23:41:51.589Z,3.29
2022-12-01T23:47:56.087Z,3.36
2022-12-01T23:54:01.438Z,3.38
